Currie, MN (56123)

3:42 PM CST on March 06, 2015 (GMT -0600)
300th st | Change Station
CLOSE
Current Station
Personal Weather Station
Location: Westbrook, MN
Elevation: 1457 ft
Nearby Weather Stations

Elev 1457 ft 44.05 °N, 95.44 °W | Updated 12 minutes ago

Partly Cloudy
Partly Cloudy
38.3 °F
Feels Like 34 °F
N
6.3
Wind Variable Wind from NE

Today
High -- | Low -- °F
--% Chance of Precip.
Yesterday
High -- | Low -- °F
Precip. -- in
6:50 AM 6:16 PM
Full, 99% visible
Pressure 30.09 in
Visibility 10.0 miles
Clouds Clear
Windchill 34 °F
Dew Point 25 °F
Humidity 58%
Rainfall in
Snow Depth Not available.
UV 2 out of 12
Pollen .40 out of 12
Air Quality Not available.
Flu Activity Not available.
METAR KTKC 062127Z AUTO 32009G14KT 10SM CLR 04/M05 A3009 RMK AO2 T00351050

More Conditions Fewer Conditions

Pressure 30.09 in
Visibility 10.0 miles
Clouds Clear
Windchill 34 °F
Dew Point 25 °F
Humidity 58%
Rainfall in
Snow Depth Not available.
UV 2 out of 12
Pollen .40 out of 12
Air Quality Not available.
Flu Activity Not available.
METAR KTKC 062127Z AUTO 32009G14KT 10SM CLR 04/M05 A3009 RMK AO2 T00351050

More Conditions Fewer Conditions

10-Day Weather Forecast

Almanac

Astronomy

Mar. 06, 2015 Rise Set
Actual Time
Civil Twilight
Nautical Twilight
Astronomical Twilight
Moon
Length of Visible Light
Length of Day
Tomorrow will be .
, % of the Moon is Illuminated

Today's Extremes

State Highs State Lows

Community

WunderPhotos

Upload Photos

1,803,406 photos uploaded!

WunderBlogs® & News

Nearby

Air Quality

  Air Quality AQ Index Pollutant
Not available.

Snow Depth

Station Depth Elevation

Earthquake Activity

City Distance Mag. Time & Date
Minimum magnitude displayed is 2.5.

Coastal Water Temperatures

Place Temperature

Nearby Weather Stations